createdAt,value
2022-08-19T00:00:28.547Z,24.25
2022-08-19T00:03:14.151Z,26.90
2022-08-19T00:06:00.346Z,26.00
2022-08-19T00:08:46.215Z,25.30
2022-08-19T00:11:32.754Z,26.05
2022-08-19T00:14:19.204Z,22.60
2022-08-19T00:17:07.566Z,22.80
2022-08-19T00:19:53.366Z,21.58
2022-08-19T00:22:42.177Z,20.58
2022-08-19T00:25:30.280Z,20.58
2022-08-19T00:28:16.898Z,20.20
2022-08-19T00:31:05.589Z,18.42
2022-08-19T00:33:51.668Z,20.08
2022-08-19T00:36:38.374Z,18.15
2022-08-19T00:39:25.090Z,20.52
2022-08-19T00:42:11.097Z,20.52
2022-08-19T00:44:57.120Z,18.90
2022-08-19T00:47:43.167Z,19.20
2022-08-19T00:50:29.099Z,19.88
2022-08-19T00:53:20.099Z,21.75
2022-08-19T00:56:07.339Z,22.58
2022-08-19T00:58:53.205Z,23.45
2022-08-19T01:01:42.275Z,26.30
2022-08-19T01:04:28.169Z,23.60
2022-08-19T01:07:15.027Z,25.15
2022-08-19T01:10:04.899Z,25.50
2022-08-19T01:12:52.262Z,25.25
2022-08-19T01:15:45.015Z,25.83
2022-08-19T01:18:33.461Z,21.88
2022-08-19T01:21:32.810Z,17.77
2022-08-19T01:24:18.594Z,18.80
2022-08-19T01:27:08.893Z,17.45
2022-08-19T01:29:56.801Z,19.13
2022-08-19T01:32:44.336Z,19.30
2022-08-19T01:35:32.525Z,19.33
2022-08-19T01:38:26.535Z,20.17
2022-08-19T01:41:13.477Z,21.60
2022-08-19T01:44:03.183Z,21.02
2022-08-19T01:47:04.829Z,21.27
2022-08-19T01:49:50.600Z,24.05
2022-08-19T01:52:38.362Z,26.75
2022-08-19T01:55:25.067Z,24.77
2022-08-19T01:58:37.038Z,22.83
2022-08-19T02:01:23.083Z,22.70
2022-08-19T02:04:12.428Z,23.02
2022-08-19T02:06:59.049Z,27.25
2022-08-19T02:09:44.937Z,24.33
2022-08-19T02:12:31.111Z,25.75
2022-08-19T02:15:18.209Z,27.45
2022-08-19T02:18:04.147Z,30.50
2022-08-19T02:20:49.659Z,34.10
2022-08-19T02:23:35.534Z,31.80
2022-08-19T02:26:21.517Z,32.95
2022-08-19T02:29:07.582Z,34.15
2022-08-19T02:31:53.692Z,33.28
2022-08-19T02:34:39.490Z,34.90
2022-08-19T02:37:43.931Z,33.80
2022-08-19T02:40:34.855Z,33.60
2022-08-19T02:43:21.376Z,31.10
2022-08-19T02:46:23.376Z,33.95
2022-08-19T02:49:09.614Z,21.15
2022-08-19T02:51:55.375Z,19.10
2022-08-19T02:54:41.357Z,17.67
2022-08-19T02:57:27.731Z,20.15
2022-08-19T03:00:14.148Z,20.77
2022-08-19T03:03:01.450Z,21.88
2022-08-19T03:05:56.167Z,22.15
2022-08-19T03:08:45.279Z,23.50
2022-08-19T03:11:32.954Z,24.60
2022-08-19T03:14:19.160Z,22.20
2022-08-19T03:17:05.658Z,21.67
2022-08-19T03:19:51.479Z,21.90
2022-08-19T03:22:37.380Z,23.10
2022-08-19T03:25:23.021Z,25.35
2022-08-19T03:28:09.060Z,25.95
2022-08-19T03:31:07.705Z,24.20
2022-08-19T03:34:18.358Z,23.95
2022-08-19T03:37:10.078Z,24.85
2022-08-19T03:39:55.641Z,24.25
2022-08-19T03:42:49.005Z,21.95
2022-08-19T03:48:20.588Z,18.58
2022-08-19T03:51:08.344Z,20.50
2022-08-19T03:53:55.578Z,20.48
2022-08-19T03:56:44.663Z,20.38
2022-08-19T03:59:33.913Z,18.35
2022-08-19T04:02:20.008Z,18.92
2022-08-19T04:05:06.537Z,21.08
2022-08-19T04:07:52.380Z,21.02
2022-08-19T04:10:39.223Z,19.58
2022-08-19T04:13:24.929Z,21.48
2022-08-19T04:16:11.510Z,19.25
2022-08-19T04:19:00.810Z,19.27
2022-08-19T04:21:49.464Z,18.48
2022-08-19T04:24:36.265Z,22.67
2022-08-19T04:27:22.139Z,24.88
2022-08-19T04:30:09.066Z,24.30
2022-08-19T04:32:55.254Z,25.40
2022-08-19T04:35:44.472Z,23.80
2022-08-19T04:38:29.939Z,23.23
2022-08-19T04:41:34.274Z,21.92
2022-08-19T04:44:20.455Z,20.08
2022-08-19T04:47:11.450Z,20.33
2022-08-19T04:49:57.445Z,20.85
2022-08-19T04:52:43.761Z,18.38
2022-08-19T04:55:29.879Z,17.25
2022-08-19T04:58:17.489Z,16.00
2022-08-19T05:01:04.516Z,16.63
2022-08-19T05:03:50.980Z,16.08
2022-08-19T05:06:37.690Z,15.50
2022-08-19T05:09:23.867Z,15.30
2022-08-19T05:12:09.755Z,13.52
2022-08-19T05:14:57.363Z,13.00
2022-08-19T05:18:03.302Z,12.73
2022-08-19T05:21:07.486Z,14.02
2022-08-19T05:23:53.310Z,13.40
2022-08-19T05:26:41.087Z,14.23
2022-08-19T05:29:36.218Z,13.40
2022-08-19T05:32:24.394Z,11.32
2022-08-19T05:35:10.732Z,10.48
2022-08-19T05:37:59.085Z,11.05
2022-08-19T05:40:48.045Z,13.25
2022-08-19T05:43:33.738Z,10.30
2022-08-19T05:46:27.766Z,9.13
2022-08-19T05:49:14.722Z,9.10
2022-08-19T05:52:07.357Z,11.00
2022-08-19T05:54:55.882Z,11.10
2022-08-19T05:57:42.120Z,13.27
2022-08-19T06:00:28.254Z,9.52
2022-08-19T06:03:14.339Z,10.30
2022-08-19T06:06:00.913Z,9.00
2022-08-19T06:08:51.732Z,10.43
2022-08-19T06:11:42.576Z,10.05
2022-08-19T06:14:31.681Z,8.95
2022-08-19T06:17:19.423Z,8.70
2022-08-19T06:20:08.085Z,8.05
2022-08-19T06:22:54.032Z,7.30
2022-08-19T06:25:41.033Z,7.60
2022-08-19T06:28:27.848Z,7.25
2022-08-19T06:31:18.445Z,6.88
2022-08-19T06:34:06.358Z,6.40
2022-08-19T06:36:53.480Z,7.10
2022-08-19T06:39:41.242Z,7.90
2022-08-19T06:42:27.564Z,6.38
2022-08-19T06:45:13.648Z,7.88
2022-08-19T06:48:00.140Z,7.10
2022-08-19T06:50:48.536Z,6.68
2022-08-19T06:53:35.961Z,6.75
2022-08-19T06:56:35.540Z,6.18
2022-08-19T06:59:24.086Z,5.78
2022-08-19T07:02:09.843Z,6.35
2022-08-19T07:04:58.400Z,6.55
2022-08-19T07:07:45.073Z,6.22
2022-08-19T07:10:33.953Z,6.35
2022-08-19T07:13:20.219Z,6.82
2022-08-19T07:16:07.860Z,6.60
2022-08-19T07:18:53.809Z,6.35
2022-08-19T07:21:39.962Z,6.30
2022-08-19T07:24:27.035Z,6.43
2022-08-19T07:27:15.981Z,6.05
2022-08-19T07:30:02.259Z,6.15
2022-08-19T07:32:47.770Z,5.38
2022-08-19T07:35:36.501Z,5.63
2022-08-19T07:38:22.520Z,5.22
2022-08-19T07:41:10.301Z,5.82
2022-08-19T07:43:56.600Z,5.15
2022-08-19T07:46:46.510Z,4.85
2022-08-19T07:49:34.645Z,5.22
2022-08-19T07:52:21.193Z,5.78
2022-08-19T07:55:13.633Z,5.03
2022-08-19T07:58:18.641Z,6.35
2022-08-19T08:01:05.767Z,4.75
2022-08-19T08:04:12.222Z,6.00
2022-08-19T08:07:16.428Z,5.78
2022-08-19T08:10:03.524Z,5.35
2022-08-19T08:13:08.559Z,5.25
2022-08-19T08:15:56.397Z,5.75
2022-08-19T08:18:50.309Z,5.47
2022-08-19T08:21:37.670Z,5.55
2022-08-19T08:24:28.299Z,6.20
2022-08-19T08:27:14.841Z,6.35
2022-08-19T08:30:07.601Z,5.18
2022-08-19T08:32:53.633Z,6.75
2022-08-19T08:35:42.862Z,5.78
2022-08-19T08:38:29.947Z,5.97
2022-08-19T08:41:23.087Z,5.35
2022-08-19T08:44:20.102Z,5.72
2022-08-19T08:47:14.046Z,5.72
2022-08-19T08:50:02.241Z,5.10
2022-08-19T08:52:54.638Z,5.25
2022-08-19T08:55:42.537Z,4.68
2022-08-19T08:58:32.276Z,4.50
2022-08-19T09:01:18.274Z,5.00
2022-08-19T09:04:06.358Z,5.00
2022-08-19T09:07:01.244Z,4.90
2022-08-19T09:10:29.309Z,5.45
2022-08-19T09:13:37.595Z,5.38
2022-08-19T09:16:27.898Z,4.50
2022-08-19T09:19:14.068Z,7.07
2022-08-19T09:22:01.607Z,4.93
2022-08-19T09:24:47.467Z,4.40
2022-08-19T09:27:42.959Z,4.25
2022-08-19T09:30:32.308Z,4.18
2022-08-19T09:33:18.481Z,3.53
2022-08-19T09:36:09.748Z,3.53
2022-08-19T09:38:56.433Z,4.00
2022-08-19T09:41:42.122Z,4.13
2022-08-19T09:44:35.257Z,3.72
2022-08-19T09:47:21.043Z,4.28
2022-08-19T09:50:11.931Z,4.03
2022-08-19T09:53:02.479Z,3.80
2022-08-19T09:55:48.339Z,3.42
2022-08-19T09:58:34.727Z,3.67
2022-08-19T10:01:25.374Z,2.72
2022-08-19T10:04:19.750Z,3.80
2022-08-19T10:07:06.506Z,3.25
2022-08-19T10:09:52.686Z,3.83
2022-08-19T10:12:38.828Z,3.58
2022-08-19T10:15:28.776Z,4.63
2022-08-19T10:18:15.706Z,4.70
2022-08-19T10:21:12.068Z,3.22
2022-08-19T10:24:00.509Z,3.58
2022-08-19T10:26:55.842Z,3.83
2022-08-19T10:29:46.579Z,3.92
2022-08-19T10:32:34.065Z,4.00
2022-08-19T10:35:21.937Z,3.90
2022-08-19T10:38:09.215Z,3.83
2022-08-19T10:40:56.609Z,3.88
2022-08-19T10:43:43.518Z,3.90
2022-08-19T10:46:33.556Z,3.50
2022-08-19T10:49:20.315Z,3.78
2022-08-19T10:52:32.340Z,3.75
2022-08-19T10:55:40.003Z,3.15
2022-08-19T10:58:26.764Z,3.75
2022-08-19T11:01:12.645Z,3.92
2022-08-19T11:03:58.994Z,4.35
2022-08-19T11:06:48.353Z,4.15
2022-08-19T11:09:40.661Z,3.85
2022-08-19T11:12:28.351Z,3.85
2022-08-19T11:15:14.092Z,4.13
2022-08-19T11:17:59.964Z,4.30
2022-08-19T11:20:46.050Z,3.83
2022-08-19T11:23:32.162Z,4.30
2022-08-19T11:26:19.287Z,3.67
2022-08-19T11:29:07.193Z,3.92
2022-08-19T11:31:53.890Z,3.10
2022-08-19T11:34:40.419Z,3.97
2022-08-19T11:37:26.192Z,4.22
2022-08-19T11:40:12.926Z,3.70
2022-08-19T11:42:59.247Z,3.75
2022-08-19T11:45:45.048Z,4.00
2022-08-19T11:48:30.969Z,4.05
2022-08-19T11:51:19.945Z,3.70
2022-08-19T11:54:07.418Z,4.40
2022-08-19T11:56:53.224Z,4.05
2022-08-19T11:59:43.427Z,3.97
2022-08-19T12:02:29.303Z,4.22
2022-08-19T12:05:15.280Z,3.72
2022-08-19T12:08:01.075Z,3.85
2022-08-19T12:10:46.862Z,4.07
2022-08-19T12:13:32.894Z,4.82
2022-08-19T12:16:22.426Z,4.97
2022-08-19T12:19:08.707Z,3.92
2022-08-19T12:22:00.953Z,3.92
2022-08-19T12:24:46.909Z,4.20
2022-08-19T12:27:41.338Z,3.75
2022-08-19T12:30:28.159Z,4.40
2022-08-19T12:33:14.762Z,5.53
2022-08-19T12:36:06.402Z,4.15
2022-08-19T12:38:53.443Z,4.35
2022-08-19T12:41:43.323Z,3.42
2022-08-19T12:44:41.617Z,3.65
2022-08-19T12:47:28.057Z,4.35
2022-08-19T12:50:13.905Z,4.03
2022-08-19T12:52:59.750Z,4.03
2022-08-19T12:55:45.619Z,4.60
2022-08-19T12:58:31.142Z,4.38
2022-08-19T13:01:22.072Z,4.18
2022-08-19T13:04:09.590Z,3.72
2022-08-19T13:06:55.274Z,4.22
2022-08-19T13:09:43.634Z,4.47
2022-08-19T13:12:29.811Z,4.15
2022-08-19T13:15:23.650Z,4.40
2022-08-19T13:18:11.826Z,4.15
2022-08-19T13:20:57.862Z,4.75
2022-08-19T13:23:43.999Z,4.05
2022-08-19T13:26:29.674Z,4.32
2022-08-19T13:29:33.830Z,4.50
2022-08-19T13:32:37.954Z,4.28
2022-08-19T13:35:23.571Z,4.47
2022-08-19T13:38:11.864Z,4.28
2022-08-19T13:41:10.057Z,3.95
2022-08-19T13:43:58.645Z,5.07
2022-08-19T13:46:45.619Z,4.45
2022-08-19T13:49:32.191Z,4.10
2022-08-19T13:52:18.211Z,4.35
2022-08-19T13:55:05.629Z,4.05
2022-08-19T13:57:59.712Z,4.18
2022-08-19T14:00:47.545Z,3.95
2022-08-19T14:03:34.745Z,4.78
2022-08-19T14:06:22.279Z,4.05
2022-08-19T14:09:08.756Z,4.68
2022-08-19T14:11:54.440Z,4.50
2022-08-19T14:14:40.733Z,3.85
2022-08-19T14:17:26.716Z,5.05
2022-08-19T14:20:17.827Z,4.40
2022-08-19T14:23:06.682Z,3.97
2022-08-19T14:25:52.749Z,4.30
2022-08-19T14:28:41.888Z,4.80
2022-08-19T14:31:30.690Z,5.30
2022-08-19T14:34:16.966Z,5.20
2022-08-19T14:37:03.001Z,4.88
2022-08-19T14:39:49.519Z,4.88
2022-08-19T14:42:36.039Z,4.55
2022-08-19T14:45:21.744Z,4.57
2022-08-19T14:48:12.436Z,4.47
2022-08-19T14:51:06.553Z,4.38
2022-08-19T14:53:52.990Z,4.13
2022-08-19T14:56:41.319Z,4.18
2022-08-19T14:59:27.338Z,4.10
2022-08-19T15:02:34.128Z,4.47
2022-08-19T15:05:18.895Z,4.15
2022-08-19T15:08:05.386Z,4.32
2022-08-19T15:10:51.076Z,4.53
2022-08-19T15:13:37.194Z,5.20
2022-08-19T15:16:24.137Z,5.18
2022-08-19T15:19:10.379Z,4.90
2022-08-19T15:21:56.104Z,5.30
2022-08-19T15:24:47.953Z,4.60
2022-08-19T15:27:35.240Z,4.20
2022-08-19T15:30:25.175Z,4.70
2022-08-19T15:33:15.263Z,5.00
2022-08-19T15:36:00.881Z,4.80
2022-08-19T15:38:47.032Z,5.05
2022-08-19T15:41:34.791Z,4.68
2022-08-19T15:44:22.724Z,4.72
2022-08-19T15:47:08.789Z,5.13
2022-08-19T15:49:58.894Z,4.47
2022-08-19T15:52:55.439Z,5.27
2022-08-19T15:55:47.546Z,4.43
2022-08-19T15:58:51.593Z,4.80
2022-08-19T16:01:55.501Z,8.05
2022-08-19T16:05:00.107Z,5.47
2022-08-19T16:07:48.038Z,5.45
2022-08-19T16:10:33.827Z,5.47
2022-08-19T16:13:19.435Z,4.78
2022-08-19T16:16:06.305Z,5.30
2022-08-19T16:18:54.842Z,5.53
2022-08-19T16:21:41.729Z,5.20
2022-08-19T16:24:29.131Z,5.78
2022-08-19T16:27:16.622Z,7.03
2022-08-19T16:30:03.212Z,6.30
2022-08-19T16:32:48.939Z,5.40
2022-08-19T16:35:35.014Z,5.68
2022-08-19T16:38:21.977Z,6.25
2022-08-19T16:41:08.010Z,6.65
2022-08-19T16:43:55.004Z,6.60
2022-08-19T16:46:41.717Z,6.10
2022-08-19T16:49:53.267Z,5.88
2022-08-19T16:52:36.371Z,6.50
2022-08-19T16:55:22.201Z,6.15
2022-08-19T16:58:08.187Z,6.47
2022-08-19T17:00:54.981Z,6.05
2022-08-19T17:03:41.375Z,7.15
2022-08-19T17:06:29.931Z,6.80
2022-08-19T17:09:16.153Z,8.35
2022-08-19T17:12:11.870Z,6.80
2022-08-19T17:14:57.859Z,5.97
2022-08-19T17:17:43.855Z,6.18
2022-08-19T17:20:33.764Z,6.25
2022-08-19T17:23:22.047Z,7.00
2022-08-19T17:26:30.903Z,9.43
2022-08-19T17:29:17.739Z,5.65
2022-08-19T17:32:05.373Z,6.15
2022-08-19T17:34:51.164Z,5.95
2022-08-19T17:37:39.169Z,7.82
2022-08-19T17:40:26.152Z,7.18
2022-08-19T17:43:18.583Z,5.90
2022-08-19T17:46:20.488Z,5.95
2022-08-19T17:49:06.784Z,5.82
2022-08-19T17:51:53.482Z,5.90
2022-08-19T17:54:39.234Z,6.68
2022-08-19T17:57:24.846Z,6.70
2022-08-19T18:00:15.380Z,7.50
2022-08-19T18:03:05.337Z,5.93
2022-08-19T18:05:53.513Z,5.97
2022-08-19T18:08:39.317Z,5.60
2022-08-19T18:11:25.508Z,6.55
2022-08-19T18:14:12.838Z,7.35
2022-08-19T18:16:59.401Z,6.35
2022-08-19T18:19:47.756Z,6.85
2022-08-19T18:22:36.574Z,6.97
2022-08-19T18:25:26.061Z,6.55
2022-08-19T18:28:11.841Z,5.70
2022-08-19T18:30:57.992Z,6.13
2022-08-19T18:33:44.960Z,7.47
2022-08-19T18:36:52.878Z,6.25
2022-08-19T18:39:57.662Z,6.47
2022-08-19T18:43:23.517Z,6.72
2022-08-19T18:46:47.705Z,7.00
2022-08-19T18:49:34.146Z,6.43
2022-08-19T18:52:27.204Z,6.80
2022-08-19T18:55:12.947Z,6.53
2022-08-19T18:57:59.174Z,6.32
2022-08-19T19:00:44.885Z,5.78
2022-08-19T19:03:30.819Z,6.80
2022-08-19T19:06:21.647Z,6.68
2022-08-19T19:09:13.836Z,7.55
2022-08-19T19:12:01.819Z,7.93
2022-08-19T19:14:49.588Z,6.88
2022-08-19T19:17:35.386Z,7.47
2022-08-19T19:20:21.843Z,6.93
2022-08-19T19:23:09.455Z,6.18
2022-08-19T19:25:55.352Z,7.13
2022-08-19T19:28:48.670Z,6.30
2022-08-19T19:31:34.793Z,7.45
2022-08-19T19:34:29.349Z,7.22
2022-08-19T19:37:17.285Z,6.47
2022-08-19T19:40:03.684Z,6.65
2022-08-19T19:42:51.930Z,6.35
2022-08-19T19:45:38.249Z,6.30
2022-08-19T19:48:24.817Z,6.82
2022-08-19T19:51:14.127Z,7.53
2022-08-19T19:54:00.876Z,6.53
2022-08-19T19:56:48.596Z,6.22
2022-08-19T19:59:34.660Z,7.07
2022-08-19T20:02:22.083Z,7.20
2022-08-19T20:05:08.785Z,6.82
2022-08-19T20:08:13.723Z,6.72
2022-08-19T20:11:02.711Z,7.72
2022-08-19T20:13:48.497Z,6.40
2022-08-19T20:16:34.558Z,7.30
2022-08-19T20:19:23.433Z,6.57
2022-08-19T20:22:09.187Z,7.07
2022-08-19T20:24:55.035Z,7.63
2022-08-19T20:27:41.823Z,7.35
2022-08-19T20:30:32.077Z,6.90
2022-08-19T20:33:19.299Z,6.75
2022-08-19T20:36:05.291Z,7.65
2022-08-19T20:38:52.251Z,8.18
2022-08-19T20:41:38.985Z,9.02
2022-08-19T20:44:25.612Z,7.22
2022-08-19T20:47:12.035Z,6.50
2022-08-19T20:49:57.890Z,7.00
2022-08-19T20:52:44.939Z,8.40
2022-08-19T20:55:39.289Z,8.02
2022-08-19T20:58:25.969Z,7.78
2022-08-19T21:01:12.092Z,8.27
2022-08-19T21:03:57.997Z,7.40
2022-08-19T21:06:45.545Z,8.88
2022-08-19T21:09:31.814Z,8.52
2022-08-19T21:12:17.803Z,7.80
2022-08-19T21:15:04.900Z,8.98
2022-08-19T21:17:51.951Z,8.18
2022-08-19T21:20:38.170Z,8.00
2022-08-19T21:23:26.696Z,8.13
2022-08-19T21:26:12.657Z,8.50
2022-08-19T21:28:58.694Z,7.68
2022-08-19T21:31:44.675Z,8.02
2022-08-19T21:34:31.081Z,8.10
2022-08-19T21:37:25.216Z,7.25
2022-08-19T21:40:12.129Z,8.23
2022-08-19T21:42:57.757Z,8.30
2022-08-19T21:45:43.876Z,6.78
2022-08-19T21:48:29.729Z,7.50
2022-08-19T21:51:16.070Z,7.15
2022-08-19T21:54:02.700Z,7.95
2022-08-19T21:56:48.603Z,8.63
2022-08-19T21:59:34.617Z,6.97
2022-08-19T22:02:21.801Z,7.22
2022-08-19T22:05:08.266Z,8.60
2022-08-19T22:07:59.822Z,9.38
2022-08-19T22:10:45.634Z,8.88
2022-08-19T22:13:39.943Z,7.40
2022-08-19T22:16:26.552Z,8.00
2022-08-19T22:19:12.735Z,8.93
2022-08-19T22:21:59.191Z,9.15
2022-08-19T22:24:44.963Z,9.25
2022-08-19T22:27:30.867Z,8.95
2022-08-19T22:30:18.481Z,8.38
2022-08-19T22:33:07.763Z,9.10
2022-08-19T22:35:53.967Z,8.85
2022-08-19T22:38:39.647Z,9.02
2022-08-19T22:41:27.615Z,9.10
2022-08-19T22:44:13.606Z,9.80
2022-08-19T22:46:59.256Z,8.98
2022-08-19T22:49:45.506Z,10.10
2022-08-19T22:52:31.780Z,10.23
2022-08-19T22:55:17.756Z,9.18
2022-08-19T22:58:04.545Z,10.52
2022-08-19T23:00:50.318Z,11.02
2022-08-19T23:03:36.338Z,10.95
2022-08-19T23:06:22.911Z,11.18
2022-08-19T23:09:19.675Z,11.60
2022-08-19T23:12:09.653Z,12.95
2022-08-19T23:14:55.670Z,12.90
2022-08-19T23:17:41.795Z,13.30
2022-08-19T23:20:33.662Z,13.52
2022-08-19T23:23:24.717Z,13.93
2022-08-19T23:26:10.769Z,13.45
2022-08-19T23:29:15.901Z,13.50
2022-08-19T23:32:03.010Z,13.77
2022-08-19T23:34:48.982Z,13.90
2022-08-19T23:37:34.782Z,14.35
2022-08-19T23:40:22.049Z,13.35
2022-08-19T23:43:09.695Z,13.10
2022-08-19T23:45:57.472Z,13.00
2022-08-19T23:48:43.575Z,12.77
2022-08-19T23:51:29.558Z,13.80
2022-08-19T23:54:15.465Z,12.68
2022-08-19T23:57:01.436Z,11.57
2022-08-19T23:59:47.068Z,12.57
